sensor_id;sensor_type;location;lat;lon;timestamp;P1;durP1;ratioP1;P2;durP2;ratioP2
65552;SDS011;52465;51.560;14.368;2023-05-24T00:01:45;5.50;;;5.00;;
65552;SDS011;52465;51.560;14.368;2023-05-24T00:04:12;5.15;;;4.80;;
65552;SDS011;52465;51.560;14.368;2023-05-24T00:06:39;5.13;;;4.72;;
65552;SDS011;52465;51.560;14.368;2023-05-24T00:09:05;5.20;;;4.70;;
65552;SDS011;52465;51.560;14.368;2023-05-24T00:11:31;5.13;;;4.72;;
65552;SDS011;52465;51.560;14.368;2023-05-24T00:13:56;5.82;;;5.25;;
65552;SDS011;52465;51.560;14.368;2023-05-24T00:16:21;4.93;;;4.53;;
65552;SDS011;52465;51.560;14.368;2023-05-24T00:18:47;5.05;;;4.65;;
65552;SDS011;52465;51.560;14.368;2023-05-24T00:21:13;5.38;;;4.97;;
65552;SDS011;52465;51.560;14.368;2023-05-24T00:23:39;5.18;;;4.68;;
65552;SDS011;52465;51.560;14.368;2023-05-24T00:26:06;5.30;;;4.78;;
65552;SDS011;52465;51.560;14.368;2023-05-24T00:28:32;5.45;;;4.57;;
65552;SDS011;52465;51.560;14.368;2023-05-24T00:30:57;4.90;;;4.50;;
65552;SDS011;52465;51.560;14.368;2023-05-24T00:33:23;5.13;;;4.63;;
65552;SDS011;52465;51.560;14.368;2023-05-24T00:35:49;5.03;;;4.63;;
65552;SDS011;52465;51.560;14.368;2023-05-24T00:38:20;5.53;;;5.03;;
65552;SDS011;52465;51.560;14.368;2023-05-24T00:40:48;5.28;;;4.78;;
65552;SDS011;52465;51.560;14.368;2023-05-24T00:43:14;5.60;;;5.10;;
65552;SDS011;52465;51.560;14.368;2023-05-24T00:45:39;4.93;;;4.53;;
65552;SDS011;52465;51.560;14.368;2023-05-24T00:48:05;4.90;;;4.50;;
65552;SDS011;52465;51.560;14.368;2023-05-24T00:50:31;6.30;;;4.90;;
65552;SDS011;52465;51.560;14.368;2023-05-24T00:52:58;5.10;;;4.60;;
65552;SDS011;52465;51.560;14.368;2023-05-24T00:55:26;5.95;;;5.10;;
65552;SDS011;52465;51.560;14.368;2023-05-24T00:57:51;5.22;;;4.82;;
65552;SDS011;52465;51.560;14.368;2023-05-24T01:00:17;4.95;;;4.45;;
65552;SDS011;52465;51.560;14.368;2023-05-24T01:03:01;5.10;;;4.72;;
65552;SDS011;52465;51.560;14.368;2023-05-24T01:05:27;5.32;;;4.93;;
65552;SDS011;52465;51.560;14.368;2023-05-24T01:10:34;5.13;;;4.50;;
65552;SDS011;52465;51.560;14.368;2023-05-24T01:13:32;5.18;;;4.78;;
65552;SDS011;52465;51.560;14.368;2023-05-24T01:16:27;5.20;;;4.80;;
65552;SDS011;52465;51.560;14.368;2023-05-24T01:23:29;5.38;;;4.78;;
65552;SDS011;52465;51.560;14.368;2023-05-24T01:26:13;5.53;;;5.10;;
65552;SDS011;52465;51.560;14.368;2023-05-24T01:29:04;5.35;;;4.93;;
65552;SDS011;52465;51.560;14.368;2023-05-24T01:31:30;5.22;;;4.80;;
65552;SDS011;52465;51.560;14.368;2023-05-24T01:33:57;5.30;;;4.82;;
65552;SDS011;52465;51.560;14.368;2023-05-24T01:36:22;5.78;;;5.28;;
65552;SDS011;52465;51.560;14.368;2023-05-24T01:38:48;5.38;;;4.88;;
65552;SDS011;52465;51.560;14.368;2023-05-24T01:41:20;4.97;;;4.57;;
65552;SDS011;52465;51.560;14.368;2023-05-24T01:44:17;5.32;;;4.82;;
65552;SDS011;52465;51.560;14.368;2023-05-24T01:47:08;5.15;;;4.80;;
65552;SDS011;52465;51.560;14.368;2023-05-24T01:49:37;5.15;;;4.72;;
65552;SDS011;52465;51.560;14.368;2023-05-24T01:52:11;5.30;;;4.80;;
65552;SDS011;52465;51.560;14.368;2023-05-24T01:54:42;5.10;;;4.80;;
65552;SDS011;52465;51.560;14.368;2023-05-24T01:57:09;5.00;;;4.60;;
65552;SDS011;52465;51.560;14.368;2023-05-24T01:59:35;5.00;;;4.47;;
65552;SDS011;52465;51.560;14.368;2023-05-24T02:02:03;5.20;;;4.70;;
65552;SDS011;52465;51.560;14.368;2023-05-24T02:04:29;5.05;;;4.55;;
65552;SDS011;52465;51.560;14.368;2023-05-24T02:06:55;5.20;;;4.72;;
65552;SDS011;52465;51.560;14.368;2023-05-24T02:09:20;5.10;;;4.70;;
65552;SDS011;52465;51.560;14.368;2023-05-24T02:11:45;6.18;;;4.60;;
65552;SDS011;52465;51.560;14.368;2023-05-24T02:14:14;5.30;;;4.88;;
65552;SDS011;52465;51.560;14.368;2023-05-24T02:16:41;5.55;;;4.53;;
65552;SDS011;52465;51.560;14.368;2023-05-24T02:19:10;5.30;;;4.72;;
65552;SDS011;52465;51.560;14.368;2023-05-24T02:21:35;5.53;;;4.70;;
65552;SDS011;52465;51.560;14.368;2023-05-24T02:24:01;4.93;;;4.43;;
65552;SDS011;52465;51.560;14.368;2023-05-24T02:26:26;4.53;;;4.20;;
65552;SDS011;52465;51.560;14.368;2023-05-24T02:28:52;4.90;;;4.50;;
65552;SDS011;52465;51.560;14.368;2023-05-24T02:31:17;5.00;;;4.50;;
65552;SDS011;52465;51.560;14.368;2023-05-24T02:33:42;4.70;;;4.30;;
65552;SDS011;52465;51.560;14.368;2023-05-24T02:36:08;5.30;;;4.90;;
65552;SDS011;52465;51.560;14.368;2023-05-24T02:38:33;4.75;;;4.45;;
65552;SDS011;52465;51.560;14.368;2023-05-24T02:40:58;5.10;;;4.70;;
65552;SDS011;52465;51.560;14.368;2023-05-24T02:43:24;4.95;;;4.57;;
65552;SDS011;52465;51.560;14.368;2023-05-24T02:45:49;4.72;;;4.40;;
65552;SDS011;52465;51.560;14.368;2023-05-24T02:48:14;5.10;;;4.80;;
65552;SDS011;52465;51.560;14.368;2023-05-24T02:50:40;5.30;;;4.68;;
65552;SDS011;52465;51.560;14.368;2023-05-24T02:53:05;5.55;;;4.65;;
65552;SDS011;52465;51.560;14.368;2023-05-24T02:55:30;5.22;;;4.72;;
65552;SDS011;52465;51.560;14.368;2023-05-24T02:57:56;4.55;;;4.25;;
65552;SDS011;52465;51.560;14.368;2023-05-24T03:00:21;4.93;;;4.53;;
65552;SDS011;52465;51.560;14.368;2023-05-24T03:02:47;5.65;;;4.50;;
65552;SDS011;52465;51.560;14.368;2023-05-24T03:05:14;4.70;;;4.30;;
65552;SDS011;52465;51.560;14.368;2023-05-24T03:07:45;4.80;;;4.50;;
65552;SDS011;52465;51.560;14.368;2023-05-24T03:10:10;5.25;;;4.85;;
65552;SDS011;52465;51.560;14.368;2023-05-24T03:12:36;4.95;;;4.53;;
65552;SDS011;52465;51.560;14.368;2023-05-24T03:15:01;5.20;;;4.65;;
65552;SDS011;52465;51.560;14.368;2023-05-24T03:17:26;4.50;;;4.20;;
65552;SDS011;52465;51.560;14.368;2023-05-24T03:19:52;4.55;;;4.25;;
65552;SDS011;52465;51.560;14.368;2023-05-24T03:22:17;4.78;;;4.50;;
65552;SDS011;52465;51.560;14.368;2023-05-24T03:27:27;4.90;;;4.50;;
65552;SDS011;52465;51.560;14.368;2023-05-24T03:29:52;4.75;;;4.45;;
65552;SDS011;52465;51.560;14.368;2023-05-24T03:32:18;4.90;;;4.50;;
65552;SDS011;52465;51.560;14.368;2023-05-24T03:34:43;5.78;;;4.60;;
65552;SDS011;52465;51.560;14.368;2023-05-24T03:37:08;4.70;;;4.30;;
65552;SDS011;52465;51.560;14.368;2023-05-24T03:39:34;5.53;;;5.03;;
65552;SDS011;52465;51.560;14.368;2023-05-24T03:41:59;5.10;;;4.13;;
65552;SDS011;52465;51.560;14.368;2023-05-24T03:44:25;4.65;;;4.28;;
65552;SDS011;52465;51.560;14.368;2023-05-24T03:46:50;4.75;;;4.35;;
65552;SDS011;52465;51.560;14.368;2023-05-24T03:49:15;4.93;;;4.45;;
65552;SDS011;52465;51.560;14.368;2023-05-24T03:51:41;4.57;;;4.20;;
65552;SDS011;52465;51.560;14.368;2023-05-24T03:54:06;4.82;;;4.43;;
65552;SDS011;52465;51.560;14.368;2023-05-24T03:56:31;5.43;;;4.93;;
65552;SDS011;52465;51.560;14.368;2023-05-24T03:58:57;4.45;;;4.15;;
65552;SDS011;52465;51.560;14.368;2023-05-24T04:01:24;4.85;;;4.40;;
65552;SDS011;52465;51.560;14.368;2023-05-24T04:03:50;4.93;;;4.53;;
65552;SDS011;52465;51.560;14.368;2023-05-24T04:06:16;4.68;;;4.38;;
65552;SDS011;52465;51.560;14.368;2023-05-24T04:08:42;4.72;;;4.32;;
65552;SDS011;52465;51.560;14.368;2023-05-24T04:11:07;4.68;;;4.28;;
65552;SDS011;52465;51.560;14.368;2023-05-24T04:13:33;4.80;;;4.40;;
65552;SDS011;52465;51.560;14.368;2023-05-24T04:15:58;4.65;;;4.32;;
65552;SDS011;52465;51.560;14.368;2023-05-24T04:18:23;4.65;;;4.25;;
65552;SDS011;52465;51.560;14.368;2023-05-24T04:20:52;4.60;;;4.30;;
65552;SDS011;52465;51.560;14.368;2023-05-24T04:23:17;4.60;;;4.30;;
65552;SDS011;52465;51.560;14.368;2023-05-24T04:25:42;4.50;;;4.20;;
65552;SDS011;52465;51.560;14.368;2023-05-24T04:30:53;4.70;;;4.40;;
65552;SDS011;52465;51.560;14.368;2023-05-24T04:33:21;4.60;;;4.30;;
65552;SDS011;52465;51.560;14.368;2023-05-24T04:35:47;4.53;;;4.13;;
65552;SDS011;52465;51.560;14.368;2023-05-24T04:38:12;4.63;;;4.30;;
65552;SDS011;52465;51.560;14.368;2023-05-24T04:40:38;4.75;;;4.32;;
65552;SDS011;52465;51.560;14.368;2023-05-24T04:43:04;4.43;;;4.18;;
65552;SDS011;52465;51.560;14.368;2023-05-24T04:45:31;5.00;;;4.50;;
65552;SDS011;52465;51.560;14.368;2023-05-24T04:47:57;5.40;;;4.30;;
65552;SDS011;52465;51.560;14.368;2023-05-24T04:50:23;4.40;;;4.10;;
65552;SDS011;52465;51.560;14.368;2023-05-24T04:52:48;4.88;;;4.43;;
65552;SDS011;52465;51.560;14.368;2023-05-24T04:55:13;5.68;;;4.70;;
65552;SDS011;52465;51.560;14.368;2023-05-24T04:57:39;4.60;;;4.30;;
65552;SDS011;52465;51.560;14.368;2023-05-24T05:00:04;4.80;;;4.30;;
65552;SDS011;52465;51.560;14.368;2023-05-24T05:02:31;4.85;;;4.35;;
65552;SDS011;52465;51.560;14.368;2023-05-24T05:04:57;4.97;;;4.50;;
65552;SDS011;52465;51.560;14.368;2023-05-24T05:07:22;4.65;;;4.25;;
65552;SDS011;52465;51.560;14.368;2023-05-24T05:09:47;4.50;;;4.20;;
65552;SDS011;52465;51.560;14.368;2023-05-24T05:12:13;4.88;;;4.47;;
65552;SDS011;52465;51.560;14.368;2023-05-24T05:14:38;4.43;;;4.13;;
65552;SDS011;52465;51.560;14.368;2023-05-24T05:17:22;4.88;;;4.50;;
65552;SDS011;52465;51.560;14.368;2023-05-24T05:19:47;4.50;;;4.20;;
65552;SDS011;52465;51.560;14.368;2023-05-24T05:22:13;4.57;;;4.28;;
65552;SDS011;52465;51.560;14.368;2023-05-24T05:24:38;4.82;;;4.40;;
65552;SDS011;52465;51.560;14.368;2023-05-24T05:27:04;4.50;;;4.30;;
65552;SDS011;52465;51.560;14.368;2023-05-24T05:29:30;4.85;;;4.45;;
65552;SDS011;52465;51.560;14.368;2023-05-24T05:31:55;4.60;;;4.30;;
65552;SDS011;52465;51.560;14.368;2023-05-24T05:34:20;4.50;;;4.20;;
65552;SDS011;52465;51.560;14.368;2023-05-24T05:36:46;5.28;;;4.47;;
65552;SDS011;52465;51.560;14.368;2023-05-24T05:39:11;4.70;;;4.40;;
65552;SDS011;52465;51.560;14.368;2023-05-24T05:41:40;5.38;;;4.40;;
65552;SDS011;52465;51.560;14.368;2023-05-24T05:44:10;4.80;;;4.45;;
65552;SDS011;52465;51.560;14.368;2023-05-24T05:46:36;4.43;;;4.22;;
65552;SDS011;52465;51.560;14.368;2023-05-24T05:49:02;5.30;;;4.70;;
65552;SDS011;52465;51.560;14.368;2023-05-24T05:51:27;4.90;;;4.50;;
65552;SDS011;52465;51.560;14.368;2023-05-24T05:53:52;5.07;;;4.57;;
65552;SDS011;52465;51.560;14.368;2023-05-24T05:56:18;4.60;;;4.20;;
65552;SDS011;52465;51.560;14.368;2023-05-24T05:58:44;4.95;;;4.50;;
65552;SDS011;52465;51.560;14.368;2023-05-24T06:01:09;4.63;;;4.32;;
65552;SDS011;52465;51.560;14.368;2023-05-24T06:03:34;4.80;;;4.40;;
65552;SDS011;52465;51.560;14.368;2023-05-24T06:06:00;5.38;;;4.88;;
65552;SDS011;52465;51.560;14.368;2023-05-24T06:08:25;4.45;;;4.15;;
65552;SDS011;52465;51.560;14.368;2023-05-24T06:10:51;4.82;;;4.35;;
65552;SDS011;52465;51.560;14.368;2023-05-24T06:13:16;4.90;;;4.45;;
65552;SDS011;52465;51.560;14.368;2023-05-24T06:15:42;5.13;;;4.70;;
65552;SDS011;52465;51.560;14.368;2023-05-24T06:18:07;4.85;;;4.45;;
65552;SDS011;52465;51.560;14.368;2023-05-24T06:20:32;4.55;;;4.15;;
65552;SDS011;52465;51.560;14.368;2023-05-24T06:22:58;4.68;;;4.28;;
65552;SDS011;52465;51.560;14.368;2023-05-24T06:25:23;4.82;;;4.20;;
65552;SDS011;52465;51.560;14.368;2023-05-24T06:27:50;4.55;;;4.20;;
65552;SDS011;52465;51.560;14.368;2023-05-24T06:30:16;4.80;;;4.40;;
65552;SDS011;52465;51.560;14.368;2023-05-24T06:32:41;4.80;;;4.40;;
65552;SDS011;52465;51.560;14.368;2023-05-24T06:35:07;4.55;;;4.15;;
65552;SDS011;52465;51.560;14.368;2023-05-24T06:37:33;6.05;;;4.57;;
65552;SDS011;52465;51.560;14.368;2023-05-24T06:39:59;4.65;;;4.25;;
65552;SDS011;52465;51.560;14.368;2023-05-24T06:42:24;4.43;;;4.10;;
65552;SDS011;52465;51.560;14.368;2023-05-24T06:44:50;5.60;;;4.90;;
65552;SDS011;52465;51.560;14.368;2023-05-24T06:47:15;4.95;;;4.50;;
65552;SDS011;52465;51.560;14.368;2023-05-24T06:49:41;5.20;;;4.20;;
65552;SDS011;52465;51.560;14.368;2023-05-24T06:52:06;5.85;;;4.50;;
65552;SDS011;52465;51.560;14.368;2023-05-24T06:54:32;6.68;;;4.80;;
65552;SDS011;52465;51.560;14.368;2023-05-24T06:56:58;6.72;;;4.70;;
65552;SDS011;52465;51.560;14.368;2023-05-24T06:59:24;4.85;;;4.40;;
65552;SDS011;52465;51.560;14.368;2023-05-24T07:01:49;5.45;;;4.40;;
65552;SDS011;52465;51.560;14.368;2023-05-24T07:04:21;7.85;;;4.50;;
65552;SDS011;52465;51.560;14.368;2023-05-24T07:06:46;7.90;;;4.78;;
65552;SDS011;52465;51.560;14.368;2023-05-24T07:09:12;5.10;;;4.60;;
65552;SDS011;52465;51.560;14.368;2023-05-24T07:11:39;5.20;;;4.80;;
65552;SDS011;52465;51.560;14.368;2023-05-24T07:14:05;6.28;;;4.78;;
65552;SDS011;52465;51.560;14.368;2023-05-24T07:16:30;5.20;;;4.70;;
65552;SDS011;52465;51.560;14.368;2023-05-24T07:18:56;6.53;;;4.53;;
65552;SDS011;52465;51.560;14.368;2023-05-24T07:21:25;4.93;;;4.50;;
65552;SDS011;52465;51.560;14.368;2023-05-24T07:23:50;6.82;;;4.85;;
65552;SDS011;52465;51.560;14.368;2023-05-24T07:26:16;4.85;;;4.20;;
65552;SDS011;52465;51.560;14.368;2023-05-24T07:28:41;7.35;;;4.45;;
65552;SDS011;52465;51.560;14.368;2023-05-24T07:31:08;7.90;;;4.60;;
65552;SDS011;52465;51.560;14.368;2023-05-24T07:33:37;11.73;;;4.70;;
65552;SDS011;52465;51.560;14.368;2023-05-24T07:36:05;8.77;;;4.35;;
65552;SDS011;52465;51.560;14.368;2023-05-24T07:41:15;5.15;;;4.25;;
65552;SDS011;52465;51.560;14.368;2023-05-24T07:43:41;9.43;;;4.70;;
65552;SDS011;52465;51.560;14.368;2023-05-24T07:46:06;6.47;;;4.80;;
65552;SDS011;52465;51.560;14.368;2023-05-24T07:48:32;6.93;;;4.50;;
65552;SDS011;52465;51.560;14.368;2023-05-24T07:50:57;8.18;;;4.50;;
65552;SDS011;52465;51.560;14.368;2023-05-24T07:53:23;7.07;;;4.60;;
65552;SDS011;52465;51.560;14.368;2023-05-24T07:55:48;5.70;;;4.50;;
65552;SDS011;52465;51.560;14.368;2023-05-24T07:58:14;4.43;;;4.07;;
65552;SDS011;52465;51.560;14.368;2023-05-24T08:00:40;6.90;;;4.82;;
65552;SDS011;52465;51.560;14.368;2023-05-24T08:03:06;8.32;;;4.60;;
65552;SDS011;52465;51.560;14.368;2023-05-24T08:05:31;6.72;;;4.90;;
65552;SDS011;52465;51.560;14.368;2023-05-24T08:07:56;7.00;;;4.13;;
65552;SDS011;52465;51.560;14.368;2023-05-24T08:10:22;6.10;;;4.25;;
65552;SDS011;52465;51.560;14.368;2023-05-24T08:12:47;5.78;;;4.07;;
65552;SDS011;52465;51.560;14.368;2023-05-24T08:15:15;5.53;;;4.57;;
65552;SDS011;52465;51.560;14.368;2023-05-24T08:17:41;4.60;;;4.20;;
65552;SDS011;52465;51.560;14.368;2023-05-24T08:20:07;4.68;;;4.20;;
65552;SDS011;52465;51.560;14.368;2023-05-24T08:22:33;5.60;;;4.20;;
65552;SDS011;52465;51.560;14.368;2023-05-24T08:24:59;4.65;;;4.25;;
65552;SDS011;52465;51.560;14.368;2023-05-24T08:27:25;6.28;;;4.57;;
65552;SDS011;52465;51.560;14.368;2023-05-24T08:29:52;5.25;;;4.28;;
65552;SDS011;52465;51.560;14.368;2023-05-24T08:32:18;5.65;;;4.20;;
65552;SDS011;52465;51.560;14.368;2023-05-24T08:34:43;4.60;;;4.20;;
65552;SDS011;52465;51.560;14.368;2023-05-24T08:37:10;4.55;;;4.13;;
65552;SDS011;52465;51.560;14.368;2023-05-24T08:39:35;6.20;;;4.00;;
65552;SDS011;52465;51.560;14.368;2023-05-24T08:42:01;5.28;;;4.25;;
65552;SDS011;52465;51.560;14.368;2023-05-24T08:44:27;6.95;;;4.45;;
65552;SDS011;52465;51.560;14.368;2023-05-24T08:46:56;5.05;;;4.65;;
65552;SDS011;52465;51.560;14.368;2023-05-24T08:49:22;5.35;;;4.38;;
65552;SDS011;52465;51.560;14.368;2023-05-24T08:51:48;5.63;;;4.03;;
65552;SDS011;52465;51.560;14.368;2023-05-24T08:54:15;6.03;;;4.10;;
65552;SDS011;52465;51.560;14.368;2023-05-24T08:56:43;5.00;;;4.15;;
65552;SDS011;52465;51.560;14.368;2023-05-24T08:59:09;4.38;;;3.97;;
65552;SDS011;52465;51.560;14.368;2023-05-24T09:01:37;4.40;;;4.03;;
65552;SDS011;52465;51.560;14.368;2023-05-24T09:04:05;4.55;;;4.10;;
65552;SDS011;52465;51.560;14.368;2023-05-24T09:06:33;4.57;;;4.18;;
65552;SDS011;52465;51.560;14.368;2023-05-24T09:08:59;5.38;;;4.15;;
65552;SDS011;52465;51.560;14.368;2023-05-24T09:11:27;4.43;;;4.00;;
65552;SDS011;52465;51.560;14.368;2023-05-24T09:13:54;4.30;;;4.00;;
65552;SDS011;52465;51.560;14.368;2023-05-24T09:16:20;5.45;;;3.83;;
65552;SDS011;52465;51.560;14.368;2023-05-24T09:18:46;4.28;;;3.70;;
65552;SDS011;52465;51.560;14.368;2023-05-24T09:21:11;3.83;;;3.60;;
65552;SDS011;52465;51.560;14.368;2023-05-24T09:23:37;5.55;;;4.10;;
65552;SDS011;52465;51.560;14.368;2023-05-24T09:26:08;5.30;;;4.43;;
65552;SDS011;52465;51.560;14.368;2023-05-24T09:31:01;4.82;;;4.10;;
65552;SDS011;52465;51.560;14.368;2023-05-24T09:33:30;4.85;;;4.45;;
65552;SDS011;52465;51.560;14.368;2023-05-24T09:35:59;4.35;;;4.05;;
65552;SDS011;52465;51.560;14.368;2023-05-24T09:38:31;4.15;;;3.80;;
65552;SDS011;52465;51.560;14.368;2023-05-24T09:41:07;5.20;;;3.97;;
65552;SDS011;52465;51.560;14.368;2023-05-24T09:43:33;4.22;;;3.92;;
65552;SDS011;52465;51.560;14.368;2023-05-24T09:46:35;4.43;;;4.03;;
65552;SDS011;52465;51.560;14.368;2023-05-24T09:49:02;7.97;;;4.10;;
65552;SDS011;52465;51.560;14.368;2023-05-24T09:51:28;4.55;;;4.15;;
65552;SDS011;52465;51.560;14.368;2023-05-24T09:53:57;4.22;;;3.92;;
65552;SDS011;52465;51.560;14.368;2023-05-24T09:56:25;4.10;;;3.80;;
65552;SDS011;52465;51.560;14.368;2023-05-24T09:58:51;5.75;;;3.80;;
65552;SDS011;52465;51.560;14.368;2023-05-24T10:01:19;4.82;;;3.78;;
65552;SDS011;52465;51.560;14.368;2023-05-24T10:03:52;4.57;;;4.18;;
65552;SDS011;52465;51.560;14.368;2023-05-24T10:06:26;4.10;;;3.80;;
65552;SDS011;52465;51.560;14.368;2023-05-24T10:08:52;5.03;;;4.18;;
65552;SDS011;52465;51.560;14.368;2023-05-24T10:11:22;4.15;;;3.80;;
65552;SDS011;52465;51.560;14.368;2023-05-24T10:13:48;4.28;;;3.88;;
65552;SDS011;52465;51.560;14.368;2023-05-24T10:16:14;6.28;;;4.05;;
65552;SDS011;52465;51.560;14.368;2023-05-24T10:18:40;4.38;;;3.95;;
65552;SDS011;52465;51.560;14.368;2023-05-24T10:21:06;4.13;;;3.58;;
65552;SDS011;52465;51.560;14.368;2023-05-24T10:23:38;4.25;;;3.85;;
65552;SDS011;52465;51.560;14.368;2023-05-24T10:26:13;4.57;;;4.18;;
65552;SDS011;52465;51.560;14.368;2023-05-24T10:28:50;4.45;;;4.00;;
65552;SDS011;52465;51.560;14.368;2023-05-24T10:31:30;4.38;;;4.00;;
65552;SDS011;52465;51.560;14.368;2023-05-24T10:33:58;4.72;;;4.20;;
65552;SDS011;52465;51.560;14.368;2023-05-24T10:36:29;4.78;;;3.80;;
65552;SDS011;52465;51.560;14.368;2023-05-24T10:41:24;6.05;;;3.88;;
65552;SDS011;52465;51.560;14.368;2023-05-24T10:43:51;4.93;;;4.43;;
65552;SDS011;52465;51.560;14.368;2023-05-24T10:46:17;5.13;;;4.00;;
65552;SDS011;52465;51.560;14.368;2023-05-24T10:48:57;4.35;;;3.95;;
65552;SDS011;52465;51.560;14.368;2023-05-24T10:51:46;5.40;;;4.30;;
65552;SDS011;52465;51.560;14.368;2023-05-24T10:54:13;4.38;;;3.97;;
65552;SDS011;52465;51.560;14.368;2023-05-24T10:56:41;4.60;;;4.20;;
65552;SDS011;52465;51.560;14.368;2023-05-24T10:59:20;4.00;;;3.72;;
65552;SDS011;52465;51.560;14.368;2023-05-24T11:01:55;3.92;;;3.63;;
65552;SDS011;52465;51.560;14.368;2023-05-24T11:04:22;4.32;;;4.03;;
65552;SDS011;52465;51.560;14.368;2023-05-24T11:06:52;4.15;;;3.88;;
65552;SDS011;52465;51.560;14.368;2023-05-24T11:09:20;4.30;;;4.00;;
65552;SDS011;52465;51.560;14.368;2023-05-24T11:11:46;6.30;;;4.13;;
65552;SDS011;52465;51.560;14.368;2023-05-24T11:14:16;4.32;;;3.97;;
65552;SDS011;52465;51.560;14.368;2023-05-24T11:16:47;5.55;;;4.20;;
65552;SDS011;52465;51.560;14.368;2023-05-24T11:19:14;4.68;;;3.97;;
65552;SDS011;52465;51.560;14.368;2023-05-24T11:21:48;4.07;;;3.78;;
65552;SDS011;52465;51.560;14.368;2023-05-24T11:24:17;4.50;;;4.10;;
65552;SDS011;52465;51.560;14.368;2023-05-24T11:26:44;4.72;;;4.20;;
65552;SDS011;52465;51.560;14.368;2023-05-24T11:29:14;4.95;;;4.05;;
65552;SDS011;52465;51.560;14.368;2023-05-24T11:31:54;4.60;;;4.20;;
65552;SDS011;52465;51.560;14.368;2023-05-24T11:34:30;4.15;;;3.90;;
65552;SDS011;52465;51.560;14.368;2023-05-24T11:36:57;4.78;;;3.75;;
65552;SDS011;52465;51.560;14.368;2023-05-24T11:39:27;4.85;;;4.07;;
65552;SDS011;52465;51.560;14.368;2023-05-24T11:42:14;4.30;;;4.00;;
65552;SDS011;52465;51.560;14.368;2023-05-24T11:44:59;4.47;;;4.18;;
65552;SDS011;52465;51.560;14.368;2023-05-24T11:47:24;4.18;;;3.88;;
65552;SDS011;52465;51.560;14.368;2023-05-24T11:49:50;4.53;;;4.07;;
65552;SDS011;52465;51.560;14.368;2023-05-24T11:52:16;4.00;;;3.70;;
65552;SDS011;52465;51.560;14.368;2023-05-24T11:54:41;5.10;;;4.10;;
65552;SDS011;52465;51.560;14.368;2023-05-24T11:57:10;4.32;;;4.03;;
65552;SDS011;52465;51.560;14.368;2023-05-24T11:59:36;4.47;;;4.05;;
65552;SDS011;52465;51.560;14.368;2023-05-24T12:02:04;4.07;;;3.78;;
65552;SDS011;52465;51.560;14.368;2023-05-24T12:04:33;5.78;;;4.22;;
65552;SDS011;52465;51.560;14.368;2023-05-24T12:06:59;4.30;;;3.90;;
65552;SDS011;52465;51.560;14.368;2023-05-24T12:09:25;4.50;;;4.10;;
65552;SDS011;52465;51.560;14.368;2023-05-24T12:11:51;4.55;;;4.15;;
65552;SDS011;52465;51.560;14.368;2023-05-24T12:14:26;4.43;;;4.05;;
65552;SDS011;52465;51.560;14.368;2023-05-24T12:16:53;4.45;;;4.13;;
65552;SDS011;52465;51.560;14.368;2023-05-24T12:19:20;4.53;;;4.10;;
65552;SDS011;52465;51.560;14.368;2023-05-24T12:21:46;4.47;;;4.10;;
65552;SDS011;52465;51.560;14.368;2023-05-24T12:24:13;4.40;;;4.00;;
65552;SDS011;52465;51.560;14.368;2023-05-24T12:26:43;4.60;;;4.20;;
65552;SDS011;52465;51.560;14.368;2023-05-24T12:29:18;4.50;;;4.15;;
65552;SDS011;52465;51.560;14.368;2023-05-24T12:31:46;4.25;;;3.85;;
65552;SDS011;52465;51.560;14.368;2023-05-24T12:34:15;4.47;;;4.05;;
65552;SDS011;52465;51.560;14.368;2023-05-24T12:36:42;4.50;;;4.13;;
65552;SDS011;52465;51.560;14.368;2023-05-24T12:42:07;4.88;;;4.40;;
65552;SDS011;52465;51.560;14.368;2023-05-24T12:44:34;5.07;;;4.22;;
65552;SDS011;52465;51.560;14.368;2023-05-24T12:47:01;4.13;;;3.92;;
65552;SDS011;52465;51.560;14.368;2023-05-24T12:49:29;6.25;;;4.90;;
65552;SDS011;52465;51.560;14.368;2023-05-24T12:51:55;4.80;;;4.30;;
65552;SDS011;52465;51.560;14.368;2023-05-24T12:54:24;4.80;;;4.40;;
65552;SDS011;52465;51.560;14.368;2023-05-24T12:56:52;6.72;;;4.68;;
65552;SDS011;52465;51.560;14.368;2023-05-24T12:59:18;7.25;;;4.45;;
65552;SDS011;52465;51.560;14.368;2023-05-24T13:01:44;4.80;;;4.40;;
65552;SDS011;52465;51.560;14.368;2023-05-24T13:04:14;4.95;;;4.32;;
65552;SDS011;52465;51.560;14.368;2023-05-24T13:06:41;4.53;;;4.15;;
65552;SDS011;52465;51.560;14.368;2023-05-24T13:09:06;5.13;;;4.68;;
65552;SDS011;52465;51.560;14.368;2023-05-24T13:11:32;4.40;;;4.07;;
65552;SDS011;52465;51.560;14.368;2023-05-24T13:13:57;4.80;;;4.40;;
65552;SDS011;52465;51.560;14.368;2023-05-24T13:16:23;6.43;;;4.70;;
65552;SDS011;52465;51.560;14.368;2023-05-24T13:18:49;5.10;;;4.50;;
65552;SDS011;52465;51.560;14.368;2023-05-24T13:21:15;4.93;;;4.30;;
65552;SDS011;52465;51.560;14.368;2023-05-24T13:23:41;5.07;;;4.57;;
65552;SDS011;52465;51.560;14.368;2023-05-24T13:26:07;4.80;;;4.40;;
65552;SDS011;52465;51.560;14.368;2023-05-24T13:28:33;5.22;;;4.78;;
65552;SDS011;52465;51.560;14.368;2023-05-24T13:30:58;5.45;;;4.85;;
65552;SDS011;52465;51.560;14.368;2023-05-24T13:33:23;4.88;;;4.47;;
65552;SDS011;52465;51.560;14.368;2023-05-24T13:35:50;5.00;;;4.55;;
65552;SDS011;52465;51.560;14.368;2023-05-24T13:38:17;5.07;;;4.57;;
65552;SDS011;52465;51.560;14.368;2023-05-24T13:40:43;5.20;;;4.78;;
65552;SDS011;52465;51.560;14.368;2023-05-24T13:43:09;6.03;;;5.15;;
65552;SDS011;52465;51.560;14.368;2023-05-24T13:45:34;4.82;;;4.30;;
65552;SDS011;52465;51.560;14.368;2023-05-24T13:48:00;4.97;;;4.68;;
65552;SDS011;52465;51.560;14.368;2023-05-24T13:50:34;4.88;;;4.40;;
65552;SDS011;52465;51.560;14.368;2023-05-24T13:53:01;4.90;;;4.50;;
65552;SDS011;52465;51.560;14.368;2023-05-24T13:55:27;4.78;;;4.38;;
65552;SDS011;52465;51.560;14.368;2023-05-24T13:57:55;6.45;;;5.10;;
65552;SDS011;52465;51.560;14.368;2023-05-24T14:00:21;6.07;;;4.65;;
65552;SDS011;52465;51.560;14.368;2023-05-24T14:02:47;5.28;;;4.72;;
65552;SDS011;52465;51.560;14.368;2023-05-24T14:05:13;4.70;;;4.30;;
65552;SDS011;52465;51.560;14.368;2023-05-24T14:07:38;6.85;;;5.57;;
65552;SDS011;52465;51.560;14.368;2023-05-24T14:10:04;7.00;;;4.88;;
65552;SDS011;52465;51.560;14.368;2023-05-24T14:12:31;5.18;;;4.57;;
65552;SDS011;52465;51.560;14.368;2023-05-24T14:14:56;5.30;;;4.50;;
65552;SDS011;52465;51.560;14.368;2023-05-24T14:17:22;5.43;;;5.00;;
65552;SDS011;52465;51.560;14.368;2023-05-24T14:19:47;5.60;;;5.10;;
65552;SDS011;52465;51.560;14.368;2023-05-24T14:22:12;5.20;;;4.80;;
65552;SDS011;52465;51.560;14.368;2023-05-24T14:24:56;4.93;;;4.55;;
65552;SDS011;52465;51.560;14.368;2023-05-24T14:27:22;4.90;;;4.50;;
65552;SDS011;52465;51.560;14.368;2023-05-24T14:29:47;5.38;;;4.88;;
65552;SDS011;52465;51.560;14.368;2023-05-24T14:32:13;5.00;;;4.40;;
65552;SDS011;52465;51.560;14.368;2023-05-24T14:34:40;5.80;;;4.75;;
65552;SDS011;52465;51.560;14.368;2023-05-24T14:37:06;5.15;;;4.68;;
65552;SDS011;52465;51.560;14.368;2023-05-24T14:39:31;5.30;;;4.80;;
65552;SDS011;52465;51.560;14.368;2023-05-24T14:41:56;5.22;;;4.80;;
65552;SDS011;52465;51.560;14.368;2023-05-24T14:44:25;4.95;;;4.55;;
65552;SDS011;52465;51.560;14.368;2023-05-24T14:46:50;5.40;;;4.72;;
65552;SDS011;52465;51.560;14.368;2023-05-24T14:49:15;5.30;;;4.63;;
65552;SDS011;52465;51.560;14.368;2023-05-24T14:51:40;6.22;;;4.68;;
65552;SDS011;52465;51.560;14.368;2023-05-24T14:54:06;5.13;;;4.63;;
65552;SDS011;52465;51.560;14.368;2023-05-24T14:56:31;5.28;;;4.70;;
65552;SDS011;52465;51.560;14.368;2023-05-24T14:58:57;5.03;;;4.60;;